Battle Creek, Michigan
Current Conditions -  °F | °C
As of 2:53 AM on Saturday 25 Oct 2014 (Local Time) from KBTL Reporting Station
Haze Haze  
Wind Chill: 50°   Ceiling: 10000
Heat Index: 50°   Visibility: 5mi
Dew Point: 46°   Wind: 7mph
Humidity: 86%   Direction: 200°SSW
Pressure: 29.92"   Gusts: NA
Location:  42.32°N, 85.18°W
Report Text: KBTL 250653Z 20006KT 5SM BR BKN100 10/08 A2992 RMK AO2 SLP132 T01000078
Loading
Personal Weather Stations






























Interactive Weather Map
Tropical Storm Tracking
New forecast layout! Learn more

10-Day Weather Forecast

Advertisements
Track Severe Weather on mobile